Terminal Aerodrome Forecast
Issued by NWS

Home | Current Version | Previous Version | Text Only | Print | Product List | Glossary On
Versions: 1 2 3 4 5 6 7 8 9 10 11 12 13 14 15 16 17 18 19 20 21 22 23 24 25 26 27 28 29 30 31 32 33 34 35
000
FTUS45 KTWC 120500
TAFOLS
TAF
KOLS 120533Z 1206/1306 10012KT P6SM VCTS SCT070CB OVC110
      TEMPO 1206/1209 VRB15G25KT P6SM -TSRA BKN070CB
     FM120900 17005KT P6SM SCT110 BKN200
     FM121400 VRB03KT P6SM SCT110 SCT200
     FM121700 29007KT P6SM SCT060 SCT120
     FM122100 35007KT P6SM VCTS SCT060CB BKN120
     FM130100 07006KT P6SM SCT060 BKN120=

USA.gov is the U.S. government's official web portal to all federal, state and local government web resources and services.